sensor_id;sensor_type;location;lat;lon;timestamp;temperature;humidity
9375;DHT22;4727;51.202;6.344;2023-07-20T00:01:13;16.50;99.90
9375;DHT22;4727;51.202;6.344;2023-07-20T00:03:39;16.70;99.90
9375;DHT22;4727;51.202;6.344;2023-07-20T00:06:04;16.60;99.90
9375;DHT22;4727;51.202;6.344;2023-07-20T00:08:30;16.60;99.90
9375;DHT22;4727;51.202;6.344;2023-07-20T00:10:56;16.50;99.90
9375;DHT22;4727;51.202;6.344;2023-07-20T00:13:22;16.50;99.90
9375;DHT22;4727;51.202;6.344;2023-07-20T00:15:48;16.40;99.90
9375;DHT22;4727;51.202;6.344;2023-07-20T00:18:14;16.40;99.90
9375;DHT22;4727;51.202;6.344;2023-07-20T00:20:39;16.40;99.90
9375;DHT22;4727;51.202;6.344;2023-07-20T00:23:05;16.40;99.90
9375;DHT22;4727;51.202;6.344;2023-07-20T00:25:31;16.50;99.90
9375;DHT22;4727;51.202;6.344;2023-07-20T00:27:57;16.60;99.90
9375;DHT22;4727;51.202;6.344;2023-07-20T00:30:22;16.50;99.90
9375;DHT22;4727;51.202;6.344;2023-07-20T00:32:48;16.50;99.90
9375;DHT22;4727;51.202;6.344;2023-07-20T00:35:13;16.50;99.90
9375;DHT22;4727;51.202;6.344;2023-07-20T00:37:39;16.60;99.90
9375;DHT22;4727;51.202;6.344;2023-07-20T00:40:05;16.50;99.90
9375;DHT22;4727;51.202;6.344;2023-07-20T00:42:33;16.50;99.90
9375;DHT22;4727;51.202;6.344;2023-07-20T00:44:59;16.50;99.90
9375;DHT22;4727;51.202;6.344;2023-07-20T00:47:24;16.40;99.90
9375;DHT22;4727;51.202;6.344;2023-07-20T00:49:51;16.30;99.90
9375;DHT22;4727;51.202;6.344;2023-07-20T00:52:18;16.40;99.90
9375;DHT22;4727;51.202;6.344;2023-07-20T00:54:44;16.40;99.90
9375;DHT22;4727;51.202;6.344;2023-07-20T00:57:10;16.40;99.90
9375;DHT22;4727;51.202;6.344;2023-07-20T00:59:38;16.40;99.90
9375;DHT22;4727;51.202;6.344;2023-07-20T01:02:03;16.40;99.90
9375;DHT22;4727;51.202;6.344;2023-07-20T01:04:29;16.40;99.90
9375;DHT22;4727;51.202;6.344;2023-07-20T01:12:55;16.40;99.90
9375;DHT22;4727;51.202;6.344;2023-07-20T01:15:21;16.40;99.90
9375;DHT22;4727;51.202;6.344;2023-07-20T01:17:47;16.50;99.90
9375;DHT22;4727;51.202;6.344;2023-07-20T01:20:18;16.40;99.90
9375;DHT22;4727;51.202;6.344;2023-07-20T01:28:53;16.50;99.90
9375;DHT22;4727;51.202;6.344;2023-07-20T01:31:27;16.40;99.90
9375;DHT22;4727;51.202;6.344;2023-07-20T01:33:58;16.40;99.90
9375;DHT22;4727;51.202;6.344;2023-07-20T01:36:26;16.50;99.90
9375;DHT22;4727;51.202;6.344;2023-07-20T01:38:54;16.40;99.90
9375;DHT22;4727;51.202;6.344;2023-07-20T01:41:21;16.40;99.90
9375;DHT22;4727;51.202;6.344;2023-07-20T01:43:47;16.40;99.90
9375;DHT22;4727;51.202;6.344;2023-07-20T01:46:13;16.30;99.90
9375;DHT22;4727;51.202;6.344;2023-07-20T01:48:39;16.40;99.90
9375;DHT22;4727;51.202;6.344;2023-07-20T01:51:04;16.30;99.90
9375;DHT22;4727;51.202;6.344;2023-07-20T01:53:30;16.20;99.90
9375;DHT22;4727;51.202;6.344;2023-07-20T01:55:56;16.20;99.90
9375;DHT22;4727;51.202;6.344;2023-07-20T01:58:22;16.30;99.90
9375;DHT22;4727;51.202;6.344;2023-07-20T02:16:55;15.80;99.90
9375;DHT22;4727;51.202;6.344;2023-07-20T02:19:25;15.60;99.90
9375;DHT22;4727;51.202;6.344;2023-07-20T02:21:51;15.70;99.90
9375;DHT22;4727;51.202;6.344;2023-07-20T02:24:17;15.60;99.90
9375;DHT22;4727;51.202;6.344;2023-07-20T02:43:48;15.40;99.90
9375;DHT22;4727;51.202;6.344;2023-07-20T02:46:13;15.30;99.90
9375;DHT22;4727;51.202;6.344;2023-07-20T02:48:39;15.40;99.90
9375;DHT22;4727;51.202;6.344;2023-07-20T02:51:04;15.30;99.90
9375;DHT22;4727;51.202;6.344;2023-07-20T02:53:30;15.40;99.90
9375;DHT22;4727;51.202;6.344;2023-07-20T03:07:56;15.50;99.90
9375;DHT22;4727;51.202;6.344;2023-07-20T03:10:21;15.40;99.90
9375;DHT22;4727;51.202;6.344;2023-07-20T03:12:47;15.40;99.90
9375;DHT22;4727;51.202;6.344;2023-07-20T03:15:12;15.50;99.90
9375;DHT22;4727;51.202;6.344;2023-07-20T03:17:38;15.40;99.90
9375;DHT22;4727;51.202;6.344;2023-07-20T03:20:04;15.40;99.90
9375;DHT22;4727;51.202;6.344;2023-07-20T03:22:34;15.40;99.90
9375;DHT22;4727;51.202;6.344;2023-07-20T03:24:59;15.60;99.90
9375;DHT22;4727;51.202;6.344;2023-07-20T03:27:25;15.50;99.90
9375;DHT22;4727;51.202;6.344;2023-07-20T03:29:50;15.70;99.90
9375;DHT22;4727;51.202;6.344;2023-07-20T03:32:16;15.60;99.90
9375;DHT22;4727;51.202;6.344;2023-07-20T03:34:41;15.70;99.90
9375;DHT22;4727;51.202;6.344;2023-07-20T03:37:07;15.80;99.90
9375;DHT22;4727;51.202;6.344;2023-07-20T03:39:33;15.80;99.90
9375;DHT22;4727;51.202;6.344;2023-07-20T03:41:58;15.70;99.90
9375;DHT22;4727;51.202;6.344;2023-07-20T03:44:24;15.60;99.90
9375;DHT22;4727;51.202;6.344;2023-07-20T03:46:50;15.60;99.90
9375;DHT22;4727;51.202;6.344;2023-07-20T03:49:15;15.80;99.90
9375;DHT22;4727;51.202;6.344;2023-07-20T03:51:41;15.60;99.90
9375;DHT22;4727;51.202;6.344;2023-07-20T03:54:06;15.70;99.90
9375;DHT22;4727;51.202;6.344;2023-07-20T03:56:33;15.70;99.90
9375;DHT22;4727;51.202;6.344;2023-07-20T03:59:01;15.70;99.90
9375;DHT22;4727;51.202;6.344;2023-07-20T04:01:26;15.60;99.90
9375;DHT22;4727;51.202;6.344;2023-07-20T04:03:52;15.70;99.90
9375;DHT22;4727;51.202;6.344;2023-07-20T04:06:17;15.70;99.90
9375;DHT22;4727;51.202;6.344;2023-07-20T04:08:44;15.80;99.90
9375;DHT22;4727;51.202;6.344;2023-07-20T04:11:09;15.80;99.90
9375;DHT22;4727;51.202;6.344;2023-07-20T04:13:35;15.80;99.90
9375;DHT22;4727;51.202;6.344;2023-07-20T04:16:01;15.80;99.90
9375;DHT22;4727;51.202;6.344;2023-07-20T04:18:28;15.90;99.90
9375;DHT22;4727;51.202;6.344;2023-07-20T04:20:53;15.90;99.90
9375;DHT22;4727;51.202;6.344;2023-07-20T04:23:19;16.00;99.90
9375;DHT22;4727;51.202;6.344;2023-07-20T04:25:44;16.00;99.90
9375;DHT22;4727;51.202;6.344;2023-07-20T04:28:10;16.00;99.90
9375;DHT22;4727;51.202;6.344;2023-07-20T04:30:37;16.20;99.90
9375;DHT22;4727;51.202;6.344;2023-07-20T04:33:05;15.90;99.90
9375;DHT22;4727;51.202;6.344;2023-07-20T04:35:53;16.10;99.90
9375;DHT22;4727;51.202;6.344;2023-07-20T04:38:20;16.10;99.90
9375;DHT22;4727;51.202;6.344;2023-07-20T04:40:46;16.30;99.90
9375;DHT22;4727;51.202;6.344;2023-07-20T04:43:14;16.20;99.90
9375;DHT22;4727;51.202;6.344;2023-07-20T04:45:39;16.20;99.90
9375;DHT22;4727;51.202;6.344;2023-07-20T04:48:09;16.30;99.90
9375;DHT22;4727;51.202;6.344;2023-07-20T04:50:37;16.50;99.90
9375;DHT22;4727;51.202;6.344;2023-07-20T04:53:03;16.20;99.90
9375;DHT22;4727;51.202;6.344;2023-07-20T04:55:28;16.30;99.90
9375;DHT22;4727;51.202;6.344;2023-07-20T04:57:54;16.40;99.90
9375;DHT22;4727;51.202;6.344;2023-07-20T05:00:20;16.30;99.90
9375;DHT22;4727;51.202;6.344;2023-07-20T05:02:47;16.30;99.90
9375;DHT22;4727;51.202;6.344;2023-07-20T05:05:14;16.40;99.90
9375;DHT22;4727;51.202;6.344;2023-07-20T05:07:40;16.40;99.90
9375;DHT22;4727;51.202;6.344;2023-07-20T05:10:06;16.60;99.90
9375;DHT22;4727;51.202;6.344;2023-07-20T05:12:32;16.50;99.90
9375;DHT22;4727;51.202;6.344;2023-07-20T05:14:58;16.50;99.90
9375;DHT22;4727;51.202;6.344;2023-07-20T05:17:23;16.40;99.90
9375;DHT22;4727;51.202;6.344;2023-07-20T05:19:50;16.50;99.90
9375;DHT22;4727;51.202;6.344;2023-07-20T05:22:16;16.50;99.90
9375;DHT22;4727;51.202;6.344;2023-07-20T05:24:42;16.60;99.90
9375;DHT22;4727;51.202;6.344;2023-07-20T05:27:07;16.60;99.90
9375;DHT22;4727;51.202;6.344;2023-07-20T05:29:33;16.70;99.90
9375;DHT22;4727;51.202;6.344;2023-07-20T05:31:58;16.80;99.90
9375;DHT22;4727;51.202;6.344;2023-07-20T05:34:24;16.60;99.90
9375;DHT22;4727;51.202;6.344;2023-07-20T05:36:49;16.70;99.90
9375;DHT22;4727;51.202;6.344;2023-07-20T05:39:17;16.70;99.90
9375;DHT22;4727;51.202;6.344;2023-07-20T05:41:42;16.80;99.90
9375;DHT22;4727;51.202;6.344;2023-07-20T05:44:08;16.80;99.90
9375;DHT22;4727;51.202;6.344;2023-07-20T05:46:34;16.80;99.90
9375;DHT22;4727;51.202;6.344;2023-07-20T05:48:59;16.60;99.90
9375;DHT22;4727;51.202;6.344;2023-07-20T05:51:25;16.90;99.90
9375;DHT22;4727;51.202;6.344;2023-07-20T05:53:51;16.90;99.90
9375;DHT22;4727;51.202;6.344;2023-07-20T05:56:16;17.00;99.90
9375;DHT22;4727;51.202;6.344;2023-07-20T05:58:42;17.10;99.90
9375;DHT22;4727;51.202;6.344;2023-07-20T06:01:08;16.90;99.90
9375;DHT22;4727;51.202;6.344;2023-07-20T06:03:33;17.10;99.90
9375;DHT22;4727;51.202;6.344;2023-07-20T06:06:03;17.00;99.90
9375;DHT22;4727;51.202;6.344;2023-07-20T06:08:34;17.00;99.90
9375;DHT22;4727;51.202;6.344;2023-07-20T06:11:00;17.10;99.90
9375;DHT22;4727;51.202;6.344;2023-07-20T06:13:25;17.10;99.90
9375;DHT22;4727;51.202;6.344;2023-07-20T06:15:51;17.10;99.90
9375;DHT22;4727;51.202;6.344;2023-07-20T06:18:17;17.40;99.90
9375;DHT22;4727;51.202;6.344;2023-07-20T06:20:48;17.20;99.90
9375;DHT22;4727;51.202;6.344;2023-07-20T06:23:13;17.10;99.90
9375;DHT22;4727;51.202;6.344;2023-07-20T06:25:39;17.10;99.90
9375;DHT22;4727;51.202;6.344;2023-07-20T06:28:05;17.10;99.90
9375;DHT22;4727;51.202;6.344;2023-07-20T06:30:30;17.00;99.90
9375;DHT22;4727;51.202;6.344;2023-07-20T06:32:56;16.80;99.90
9375;DHT22;4727;51.202;6.344;2023-07-20T06:35:21;17.00;99.90
9375;DHT22;4727;51.202;6.344;2023-07-20T06:37:47;17.20;99.90
9375;DHT22;4727;51.202;6.344;2023-07-20T06:40:13;17.40;99.90
9375;DHT22;4727;51.202;6.344;2023-07-20T06:42:38;17.40;99.90
9375;DHT22;4727;51.202;6.344;2023-07-20T06:45:04;17.50;99.90
9375;DHT22;4727;51.202;6.344;2023-07-20T06:47:30;17.50;99.90
9375;DHT22;4727;51.202;6.344;2023-07-20T06:49:56;17.50;99.90
9375;DHT22;4727;51.202;6.344;2023-07-20T06:52:21;17.60;99.90
9375;DHT22;4727;51.202;6.344;2023-07-20T06:54:47;17.70;99.90
9375;DHT22;4727;51.202;6.344;2023-07-20T06:57:12;17.70;99.90
9375;DHT22;4727;51.202;6.344;2023-07-20T06:59:38;17.60;99.90
9375;DHT22;4727;51.202;6.344;2023-07-20T07:02:04;17.30;99.90
9375;DHT22;4727;51.202;6.344;2023-07-20T07:04:29;17.40;99.90
9375;DHT22;4727;51.202;6.344;2023-07-20T07:06:55;17.60;99.90
9375;DHT22;4727;51.202;6.344;2023-07-20T07:09:20;17.50;99.90
9375;DHT22;4727;51.202;6.344;2023-07-20T07:11:46;17.50;99.90
9375;DHT22;4727;51.202;6.344;2023-07-20T07:14:12;17.60;99.90
9375;DHT22;4727;51.202;6.344;2023-07-20T07:16:38;17.50;99.90
9375;DHT22;4727;51.202;6.344;2023-07-20T07:19:04;17.70;99.90
9375;DHT22;4727;51.202;6.344;2023-07-20T07:21:31;17.70;99.90
9375;DHT22;4727;51.202;6.344;2023-07-20T07:23:56;17.90;99.90
9375;DHT22;4727;51.202;6.344;2023-07-20T07:26:23;17.70;99.90
9375;DHT22;4727;51.202;6.344;2023-07-20T07:28:49;17.70;99.90
9375;DHT22;4727;51.202;6.344;2023-07-20T07:31:15;18.00;99.90
9375;DHT22;4727;51.202;6.344;2023-07-20T07:33:40;17.90;99.90
9375;DHT22;4727;51.202;6.344;2023-07-20T07:36:06;17.90;99.90
9375;DHT22;4727;51.202;6.344;2023-07-20T07:38:32;18.00;99.90
9375;DHT22;4727;51.202;6.344;2023-07-20T07:40:58;18.00;99.90
9375;DHT22;4727;51.202;6.344;2023-07-20T07:43:24;18.00;99.90
9375;DHT22;4727;51.202;6.344;2023-07-20T07:45:49;17.90;99.90
9375;DHT22;4727;51.202;6.344;2023-07-20T07:48:15;17.90;99.90
9375;DHT22;4727;51.202;6.344;2023-07-20T07:50:41;18.00;99.90
9375;DHT22;4727;51.202;6.344;2023-07-20T07:53:07;18.10;99.90
9375;DHT22;4727;51.202;6.344;2023-07-20T07:55:34;18.10;99.90
9375;DHT22;4727;51.202;6.344;2023-07-20T07:58:00;18.40;99.90
9375;DHT22;4727;51.202;6.344;2023-07-20T08:00:26;18.20;99.90
9375;DHT22;4727;51.202;6.344;2023-07-20T08:02:51;18.20;99.90
9375;DHT22;4727;51.202;6.344;2023-07-20T08:05:17;18.30;99.90
9375;DHT22;4727;51.202;6.344;2023-07-20T08:07:43;18.30;99.90
9375;DHT22;4727;51.202;6.344;2023-07-20T08:10:09;18.70;99.90
9375;DHT22;4727;51.202;6.344;2023-07-20T08:12:35;18.60;99.90
9375;DHT22;4727;51.202;6.344;2023-07-20T08:15:01;18.60;99.90
9375;DHT22;4727;51.202;6.344;2023-07-20T08:17:27;18.80;99.90
9375;DHT22;4727;51.202;6.344;2023-07-20T08:19:52;18.90;99.90
9375;DHT22;4727;51.202;6.344;2023-07-20T08:22:18;18.80;99.90
9375;DHT22;4727;51.202;6.344;2023-07-20T08:24:44;18.80;99.90
9375;DHT22;4727;51.202;6.344;2023-07-20T08:27:09;18.80;99.90
9375;DHT22;4727;51.202;6.344;2023-07-20T08:29:36;18.80;99.90
9375;DHT22;4727;51.202;6.344;2023-07-20T08:32:02;19.10;99.90
9375;DHT22;4727;51.202;6.344;2023-07-20T08:34:29;19.10;99.90
9375;DHT22;4727;51.202;6.344;2023-07-20T08:36:55;19.20;99.90
9375;DHT22;4727;51.202;6.344;2023-07-20T08:39:21;19.30;99.90
9375;DHT22;4727;51.202;6.344;2023-07-20T08:41:48;19.50;99.90
9375;DHT22;4727;51.202;6.344;2023-07-20T08:44:14;19.40;99.90
9375;DHT22;4727;51.202;6.344;2023-07-20T08:46:41;19.50;99.90
9375;DHT22;4727;51.202;6.344;2023-07-20T08:49:08;19.50;99.90
9375;DHT22;4727;51.202;6.344;2023-07-20T08:51:35;19.40;99.90
9375;DHT22;4727;51.202;6.344;2023-07-20T08:54:01;19.40;99.90
9375;DHT22;4727;51.202;6.344;2023-07-20T08:56:27;19.40;99.90
9375;DHT22;4727;51.202;6.344;2023-07-20T08:58:56;19.20;99.90
9375;DHT22;4727;51.202;6.344;2023-07-20T09:01:22;19.20;99.90
9375;DHT22;4727;51.202;6.344;2023-07-20T09:03:49;19.30;99.90
9375;DHT22;4727;51.202;6.344;2023-07-20T09:22:44;19.30;99.90
9375;DHT22;4727;51.202;6.344;2023-07-20T09:25:18;19.30;99.90
9375;DHT22;4727;51.202;6.344;2023-07-20T09:27:47;19.60;99.90
9375;DHT22;4727;51.202;6.344;2023-07-20T09:30:14;19.70;99.90
9375;DHT22;4727;51.202;6.344;2023-07-20T09:32:44;19.70;99.90
9375;DHT22;4727;51.202;6.344;2023-07-20T09:37:42;19.60;99.90
9375;DHT22;4727;51.202;6.344;2023-07-20T09:40:11;19.80;99.90
9375;DHT22;4727;51.202;6.344;2023-07-20T09:42:37;19.90;99.90
9375;DHT22;4727;51.202;6.344;2023-07-20T09:45:06;20.00;99.90
9375;DHT22;4727;51.202;6.344;2023-07-20T09:47:36;20.10;99.90
9375;DHT22;4727;51.202;6.344;2023-07-20T09:50:02;20.10;99.90
9375;DHT22;4727;51.202;6.344;2023-07-20T09:52:29;20.10;99.90
9375;DHT22;4727;51.202;6.344;2023-07-20T09:54:55;20.20;99.90
9375;DHT22;4727;51.202;6.344;2023-07-20T09:57:22;20.10;99.90
9375;DHT22;4727;51.202;6.344;2023-07-20T09:59:47;20.20;99.90
9375;DHT22;4727;51.202;6.344;2023-07-20T10:02:20;20.30;99.90
9375;DHT22;4727;51.202;6.344;2023-07-20T10:04:48;20.40;99.90
9375;DHT22;4727;51.202;6.344;2023-07-20T10:07:17;20.50;99.90
9375;DHT22;4727;51.202;6.344;2023-07-20T10:09:47;20.60;99.90
9375;DHT22;4727;51.202;6.344;2023-07-20T10:12:15;20.70;99.90
9375;DHT22;4727;51.202;6.344;2023-07-20T10:14:49;20.80;99.90
9375;DHT22;4727;51.202;6.344;2023-07-20T10:17:17;20.90;99.90
9375;DHT22;4727;51.202;6.344;2023-07-20T10:19:47;21.00;99.90
9375;DHT22;4727;51.202;6.344;2023-07-20T10:22:25;21.00;99.90
9375;DHT22;4727;51.202;6.344;2023-07-20T10:24:51;20.90;99.90
9375;DHT22;4727;51.202;6.344;2023-07-20T10:27:20;20.90;99.90
9375;DHT22;4727;51.202;6.344;2023-07-20T10:29:46;20.90;99.90
9375;DHT22;4727;51.202;6.344;2023-07-20T10:32:12;21.00;99.90
9375;DHT22;4727;51.202;6.344;2023-07-20T10:34:37;21.00;99.90
9375;DHT22;4727;51.202;6.344;2023-07-20T10:37:03;21.10;99.90
9375;DHT22;4727;51.202;6.344;2023-07-20T10:39:31;20.80;99.90
9375;DHT22;4727;51.202;6.344;2023-07-20T10:42:07;20.70;99.90
9375;DHT22;4727;51.202;6.344;2023-07-20T10:44:33;20.40;99.90
9375;DHT22;4727;51.202;6.344;2023-07-20T10:47:00;20.50;99.90
9375;DHT22;4727;51.202;6.344;2023-07-20T10:49:26;20.70;99.90
9375;DHT22;4727;51.202;6.344;2023-07-20T10:52:00;20.50;99.90
9375;DHT22;4727;51.202;6.344;2023-07-20T10:56:56;20.90;99.90
9375;DHT22;4727;51.202;6.344;2023-07-20T11:01:54;21.10;99.90
9375;DHT22;4727;51.202;6.344;2023-07-20T11:04:41;21.20;99.90
9375;DHT22;4727;51.202;6.344;2023-07-20T11:07:07;21.40;99.90
9375;DHT22;4727;51.202;6.344;2023-07-20T11:09:36;21.40;99.90
9375;DHT22;4727;51.202;6.344;2023-07-20T11:12:12;21.50;99.90
9375;DHT22;4727;51.202;6.344;2023-07-20T11:15:05;21.30;99.90
9375;DHT22;4727;51.202;6.344;2023-07-20T11:17:31;21.10;99.90
9375;DHT22;4727;51.202;6.344;2023-07-20T11:20:00;21.10;99.90
9375;DHT22;4727;51.202;6.344;2023-07-20T11:22:26;21.30;99.90
9375;DHT22;4727;51.202;6.344;2023-07-20T11:24:55;21.40;99.90
9375;DHT22;4727;51.202;6.344;2023-07-20T11:27:21;21.50;99.90
9375;DHT22;4727;51.202;6.344;2023-07-20T11:29:48;21.50;99.90
9375;DHT22;4727;51.202;6.344;2023-07-20T11:32:20;21.50;99.90
9375;DHT22;4727;51.202;6.344;2023-07-20T11:34:47;21.40;99.90
9375;DHT22;4727;51.202;6.344;2023-07-20T11:37:13;21.10;99.90
9375;DHT22;4727;51.202;6.344;2023-07-20T11:39:39;21.20;99.90
9375;DHT22;4727;51.202;6.344;2023-07-20T11:42:05;21.30;99.90
9375;DHT22;4727;51.202;6.344;2023-07-20T11:44:32;21.30;99.90
9375;DHT22;4727;51.202;6.344;2023-07-20T11:47:06;21.40;99.90
9375;DHT22;4727;51.202;6.344;2023-07-20T11:49:36;21.40;99.90
9375;DHT22;4727;51.202;6.344;2023-07-20T11:52:14;21.50;99.90
9375;DHT22;4727;51.202;6.344;2023-07-20T11:54:41;21.70;99.90
9375;DHT22;4727;51.202;6.344;2023-07-20T11:57:06;21.80;99.90
9375;DHT22;4727;51.202;6.344;2023-07-20T11:59:33;22.00;99.90
9375;DHT22;4727;51.202;6.344;2023-07-20T12:02:01;22.00;99.90
9375;DHT22;4727;51.202;6.344;2023-07-20T12:04:28;21.90;99.90
9375;DHT22;4727;51.202;6.344;2023-07-20T12:06:54;21.90;99.90
9375;DHT22;4727;51.202;6.344;2023-07-20T12:09:20;22.10;99.90
9375;DHT22;4727;51.202;6.344;2023-07-20T12:11:49;21.70;99.90
9375;DHT22;4727;51.202;6.344;2023-07-20T12:14:15;21.70;99.90
9375;DHT22;4727;51.202;6.344;2023-07-20T12:16:40;21.50;99.90
9375;DHT22;4727;51.202;6.344;2023-07-20T12:19:11;21.50;99.90
9375;DHT22;4727;51.202;6.344;2023-07-20T12:21:38;21.90;99.90
9375;DHT22;4727;51.202;6.344;2023-07-20T12:24:06;22.20;99.90
9375;DHT22;4727;51.202;6.344;2023-07-20T12:26:33;22.40;99.90
9375;DHT22;4727;51.202;6.344;2023-07-20T12:29:00;22.50;99.90
9375;DHT22;4727;51.202;6.344;2023-07-20T12:31:26;22.40;99.90
9375;DHT22;4727;51.202;6.344;2023-07-20T12:33:53;22.30;99.90
9375;DHT22;4727;51.202;6.344;2023-07-20T12:36:20;22.30;99.90
9375;DHT22;4727;51.202;6.344;2023-07-20T12:38:46;22.40;99.90
9375;DHT22;4727;51.202;6.344;2023-07-20T12:41:12;22.30;99.90
9375;DHT22;4727;51.202;6.344;2023-07-20T12:43:39;22.20;99.90
9375;DHT22;4727;51.202;6.344;2023-07-20T12:46:05;22.10;99.90
9375;DHT22;4727;51.202;6.344;2023-07-20T12:48:31;22.20;99.90
9375;DHT22;4727;51.202;6.344;2023-07-20T12:50:57;22.40;99.90
9375;DHT22;4727;51.202;6.344;2023-07-20T12:53:22;22.80;99.90
9375;DHT22;4727;51.202;6.344;2023-07-20T12:55:48;23.00;99.90
9375;DHT22;4727;51.202;6.344;2023-07-20T12:58:14;23.10;99.90
9375;DHT22;4727;51.202;6.344;2023-07-20T13:00:39;23.20;99.90
9375;DHT22;4727;51.202;6.344;2023-07-20T13:03:06;23.40;99.90
9375;DHT22;4727;51.202;6.344;2023-07-20T13:05:32;23.50;99.90
9375;DHT22;4727;51.202;6.344;2023-07-20T13:07:58;23.50;99.90
9375;DHT22;4727;51.202;6.344;2023-07-20T13:10:24;23.30;99.90
9375;DHT22;4727;51.202;6.344;2023-07-20T13:12:50;23.20;99.90
9375;DHT22;4727;51.202;6.344;2023-07-20T13:15:17;23.00;99.90
9375;DHT22;4727;51.202;6.344;2023-07-20T13:17:42;23.00;99.90
9375;DHT22;4727;51.202;6.344;2023-07-20T13:20:10;23.00;99.90
9375;DHT22;4727;51.202;6.344;2023-07-20T13:22:39;23.00;99.90
9375;DHT22;4727;51.202;6.344;2023-07-20T13:25:05;23.00;99.90
9375;DHT22;4727;51.202;6.344;2023-07-20T13:27:31;22.90;99.90
9375;DHT22;4727;51.202;6.344;2023-07-20T13:29:58;22.90;99.90
9375;DHT22;4727;51.202;6.344;2023-07-20T13:32:23;22.80;99.90
9375;DHT22;4727;51.202;6.344;2023-07-20T13:34:49;22.80;99.90
9375;DHT22;4727;51.202;6.344;2023-07-20T13:37:15;22.80;99.90
9375;DHT22;4727;51.202;6.344;2023-07-20T13:39:41;22.70;99.90
9375;DHT22;4727;51.202;6.344;2023-07-20T13:42:07;22.70;99.90
9375;DHT22;4727;51.202;6.344;2023-07-20T13:44:34;22.80;99.90
9375;DHT22;4727;51.202;6.344;2023-07-20T13:47:01;22.90;99.90
9375;DHT22;4727;51.202;6.344;2023-07-20T13:49:27;23.00;99.90
9375;DHT22;4727;51.202;6.344;2023-07-20T13:51:53;23.00;99.90
9375;DHT22;4727;51.202;6.344;2023-07-20T13:54:18;23.10;99.90
9375;DHT22;4727;51.202;6.344;2023-07-20T13:56:44;23.20;99.90
9375;DHT22;4727;51.202;6.344;2023-07-20T13:59:09;23.20;99.90
9375;DHT22;4727;51.202;6.344;2023-07-20T14:01:35;23.30;99.90
9375;DHT22;4727;51.202;6.344;2023-07-20T14:04:01;23.10;99.90
9375;DHT22;4727;51.202;6.344;2023-07-20T14:06:31;23.10;99.90
9375;DHT22;4727;51.202;6.344;2023-07-20T14:08:57;23.00;99.90
9375;DHT22;4727;51.202;6.344;2023-07-20T14:11:23;23.10;99.90
9375;DHT22;4727;51.202;6.344;2023-07-20T14:13:52;23.10;99.90
9375;DHT22;4727;51.202;6.344;2023-07-20T14:16:22;23.20;99.90
9375;DHT22;4727;51.202;6.344;2023-07-20T14:18:47;23.20;99.90
9375;DHT22;4727;51.202;6.344;2023-07-20T14:21:14;23.10;99.90
9375;DHT22;4727;51.202;6.344;2023-07-20T14:23:40;22.90;99.90
9375;DHT22;4727;51.202;6.344;2023-07-20T14:26:05;22.80;99.90
9375;DHT22;4727;51.202;6.344;2023-07-20T14:28:32;22.70;99.90
9375;DHT22;4727;51.202;6.344;2023-07-20T14:30:58;22.80;99.90
9375;DHT22;4727;51.202;6.344;2023-07-20T14:33:24;22.90;99.90
9375;DHT22;4727;51.202;6.344;2023-07-20T14:35:49;23.10;99.90
9375;DHT22;4727;51.202;6.344;2023-07-20T14:38:15;23.00;99.90
9375;DHT22;4727;51.202;6.344;2023-07-20T14:40:40;23.30;99.90
9375;DHT22;4727;51.202;6.344;2023-07-20T14:43:06;23.40;99.90
9375;DHT22;4727;51.202;6.344;2023-07-20T14:45:32;23.60;99.90
9375;DHT22;4727;51.202;6.344;2023-07-20T14:47:57;23.70;99.90
9375;DHT22;4727;51.202;6.344;2023-07-20T14:50:23;23.60;99.90
9375;DHT22;4727;51.202;6.344;2023-07-20T14:52:49;23.60;99.90
9375;DHT22;4727;51.202;6.344;2023-07-20T14:55:15;23.70;99.90
9375;DHT22;4727;51.202;6.344;2023-07-20T14:57:40;23.70;99.90
9375;DHT22;4727;51.202;6.344;2023-07-20T15:00:06;23.90;99.90
9375;DHT22;4727;51.202;6.344;2023-07-20T15:02:33;23.80;99.90
9375;DHT22;4727;51.202;6.344;2023-07-20T15:04:59;24.10;99.90
9375;DHT22;4727;51.202;6.344;2023-07-20T15:22:44;25.20;99.90
9375;DHT22;4727;51.202;6.344;2023-07-20T15:25:10;25.10;99.90
9375;DHT22;4727;51.202;6.344;2023-07-20T15:27:39;24.70;99.90
9375;DHT22;4727;51.202;6.344;2023-07-20T15:30:07;24.20;99.90
9375;DHT22;4727;51.202;6.344;2023-07-20T15:32:33;24.20;99.90
9375;DHT22;4727;51.202;6.344;2023-07-20T15:34:58;24.50;99.90
9375;DHT22;4727;51.202;6.344;2023-07-20T15:37:24;24.80;99.90
9375;DHT22;4727;51.202;6.344;2023-07-20T15:39:50;25.10;99.90
9375;DHT22;4727;51.202;6.344;2023-07-20T15:42:16;25.50;99.90
9375;DHT22;4727;51.202;6.344;2023-07-20T15:44:41;25.80;99.90
9375;DHT22;4727;51.202;6.344;2023-07-20T15:47:07;25.90;99.90
9375;DHT22;4727;51.202;6.344;2023-07-20T15:49:32;26.10;99.90
9375;DHT22;4727;51.202;6.344;2023-07-20T15:52:01;26.00;99.90
9375;DHT22;4727;51.202;6.344;2023-07-20T15:54:26;26.10;99.90
9375;DHT22;4727;51.202;6.344;2023-07-20T15:56:52;25.90;99.90
9375;DHT22;4727;51.202;6.344;2023-07-20T15:59:19;25.70;99.90
9375;DHT22;4727;51.202;6.344;2023-07-20T16:01:44;25.60;99.90
9375;DHT22;4727;51.202;6.344;2023-07-20T16:04:12;25.60;99.90
9375;DHT22;4727;51.202;6.344;2023-07-20T16:06:41;25.40;99.90
9375;DHT22;4727;51.202;6.344;2023-07-20T16:09:07;25.20;99.90
9375;DHT22;4727;51.202;6.344;2023-07-20T16:11:33;25.00;99.90
9375;DHT22;4727;51.202;6.344;2023-07-20T16:14:00;24.70;99.90
9375;DHT22;4727;51.202;6.344;2023-07-20T16:16:26;24.60;99.90
9375;DHT22;4727;51.202;6.344;2023-07-20T16:18:51;24.60;99.90
9375;DHT22;4727;51.202;6.344;2023-07-20T16:21:19;24.80;99.90
9375;DHT22;4727;51.202;6.344;2023-07-20T16:23:46;24.90;99.90
9375;DHT22;4727;51.202;6.344;2023-07-20T16:26:11;25.10;99.90
9375;DHT22;4727;51.202;6.344;2023-07-20T16:28:37;25.40;99.90
9375;DHT22;4727;51.202;6.344;2023-07-20T16:31:10;25.40;99.90
9375;DHT22;4727;51.202;6.344;2023-07-20T16:33:36;25.40;99.90
9375;DHT22;4727;51.202;6.344;2023-07-20T16:36:02;25.40;99.90
9375;DHT22;4727;51.202;6.344;2023-07-20T16:38:28;25.40;99.90
9375;DHT22;4727;51.202;6.344;2023-07-20T16:40:56;25.20;99.90
9375;DHT22;4727;51.202;6.344;2023-07-20T16:43:22;25.20;99.90
9375;DHT22;4727;51.202;6.344;2023-07-20T16:45:48;24.90;99.90
9375;DHT22;4727;51.202;6.344;2023-07-20T16:48:13;24.60;99.90
9375;DHT22;4727;51.202;6.344;2023-07-20T16:50:39;24.40;99.90
9375;DHT22;4727;51.202;6.344;2023-07-20T16:53:04;24.40;99.90
9375;DHT22;4727;51.202;6.344;2023-07-20T16:55:30;24.40;99.90
9375;DHT22;4727;51.202;6.344;2023-07-20T16:57:55;24.40;99.90
9375;DHT22;4727;51.202;6.344;2023-07-20T17:00:21;24.40;99.90
9375;DHT22;4727;51.202;6.344;2023-07-20T17:02:47;24.40;99.90
9375;DHT22;4727;51.202;6.344;2023-07-20T17:05:13;24.40;99.90
9375;DHT22;4727;51.202;6.344;2023-07-20T17:07:39;24.20;99.90
9375;DHT22;4727;51.202;6.344;2023-07-20T17:10:08;24.20;99.90
9375;DHT22;4727;51.202;6.344;2023-07-20T17:12:38;24.30;99.90
9375;DHT22;4727;51.202;6.344;2023-07-20T17:15:06;24.30;99.90
9375;DHT22;4727;51.202;6.344;2023-07-20T17:17:32;24.00;99.90
9375;DHT22;4727;51.202;6.344;2023-07-20T17:19:58;23.80;99.90
9375;DHT22;4727;51.202;6.344;2023-07-20T17:22:23;24.00;99.90
9375;DHT22;4727;51.202;6.344;2023-07-20T17:24:49;24.10;99.90
9375;DHT22;4727;51.202;6.344;2023-07-20T17:27:14;24.20;99.90
9375;DHT22;4727;51.202;6.344;2023-07-20T17:29:40;24.10;99.90
9375;DHT22;4727;51.202;6.344;2023-07-20T17:32:06;24.10;99.90
9375;DHT22;4727;51.202;6.344;2023-07-20T17:34:32;24.00;99.90